sensor_id;sensor_type;location;lat;lon;timestamp;temperature;humidity
11846;DHT22;5982;37.494;-8.758;2023-06-10T00:01:54;20.20;99.90
11846;DHT22;5982;37.494;-8.758;2023-06-10T00:04:26;20.10;99.90
11846;DHT22;5982;37.494;-8.758;2023-06-10T00:06:54;19.90;99.90
11846;DHT22;5982;37.494;-8.758;2023-06-10T00:09:22;19.90;99.90
11846;DHT22;5982;37.494;-8.758;2023-06-10T00:11:51;19.80;99.90
11846;DHT22;5982;37.494;-8.758;2023-06-10T00:14:19;19.70;99.90
11846;DHT22;5982;37.494;-8.758;2023-06-10T00:16:47;19.60;99.90
11846;DHT22;5982;37.494;-8.758;2023-06-10T00:19:15;19.60;99.90
11846;DHT22;5982;37.494;-8.758;2023-06-10T00:21:46;19.40;99.90
11846;DHT22;5982;37.494;-8.758;2023-06-10T00:24:13;19.30;99.90
11846;DHT22;5982;37.494;-8.758;2023-06-10T00:26:41;19.30;99.90
11846;DHT22;5982;37.494;-8.758;2023-06-10T00:29:09;19.40;99.90
11846;DHT22;5982;37.494;-8.758;2023-06-10T00:31:37;19.40;99.90
11846;DHT22;5982;37.494;-8.758;2023-06-10T00:34:05;19.40;99.90
11846;DHT22;5982;37.494;-8.758;2023-06-10T00:36:34;19.30;99.90
11846;DHT22;5982;37.494;-8.758;2023-06-10T00:39:03;19.20;99.90
11846;DHT22;5982;37.494;-8.758;2023-06-10T00:41:31;19.20;99.90
11846;DHT22;5982;37.494;-8.758;2023-06-10T00:43:59;19.10;99.90
11846;DHT22;5982;37.494;-8.758;2023-06-10T00:46:27;19.00;99.90
11846;DHT22;5982;37.494;-8.758;2023-06-10T00:48:57;19.00;99.90
11846;DHT22;5982;37.494;-8.758;2023-06-10T00:51:26;19.00;99.90
11846;DHT22;5982;37.494;-8.758;2023-06-10T00:53:54;19.00;99.90
11846;DHT22;5982;37.494;-8.758;2023-06-10T00:56:23;19.10;99.90
11846;DHT22;5982;37.494;-8.758;2023-06-10T00:58:52;19.10;99.90
11846;DHT22;5982;37.494;-8.758;2023-06-10T01:01:20;19.10;99.90
11846;DHT22;5982;37.494;-8.758;2023-06-10T01:03:48;19.20;99.90
11846;DHT22;5982;37.494;-8.758;2023-06-10T01:06:18;19.30;99.90
11846;DHT22;5982;37.494;-8.758;2023-06-10T01:08:53;19.40;99.90
11846;DHT22;5982;37.494;-8.758;2023-06-10T01:11:28;19.40;99.90
11846;DHT22;5982;37.494;-8.758;2023-06-10T01:14:00;19.50;99.90
11846;DHT22;5982;37.494;-8.758;2023-06-10T01:16:29;19.50;99.90
11846;DHT22;5982;37.494;-8.758;2023-06-10T01:18:57;19.40;99.90
11846;DHT22;5982;37.494;-8.758;2023-06-10T01:21:27;19.40;99.90
11846;DHT22;5982;37.494;-8.758;2023-06-10T01:23:56;19.40;99.90
11846;DHT22;5982;37.494;-8.758;2023-06-10T01:26:25;19.40;99.90
11846;DHT22;5982;37.494;-8.758;2023-06-10T01:28:57;19.50;99.90
11846;DHT22;5982;37.494;-8.758;2023-06-10T01:31:30;19.50;99.90
11846;DHT22;5982;37.494;-8.758;2023-06-10T01:34:02;19.40;99.90
11846;DHT22;5982;37.494;-8.758;2023-06-10T01:36:32;19.40;99.90
11846;DHT22;5982;37.494;-8.758;2023-06-10T01:39:01;19.50;99.90
11846;DHT22;5982;37.494;-8.758;2023-06-10T01:41:30;19.40;99.90
11846;DHT22;5982;37.494;-8.758;2023-06-10T01:43:58;19.40;99.90
11846;DHT22;5982;37.494;-8.758;2023-06-10T01:46:26;19.40;99.90
11846;DHT22;5982;37.494;-8.758;2023-06-10T01:48:54;19.50;99.90
11846;DHT22;5982;37.494;-8.758;2023-06-10T01:51:22;19.40;99.90
11846;DHT22;5982;37.494;-8.758;2023-06-10T01:53:52;19.40;99.90
11846;DHT22;5982;37.494;-8.758;2023-06-10T01:56:20;19.30;99.90
11846;DHT22;5982;37.494;-8.758;2023-06-10T01:58:48;19.30;99.90
11846;DHT22;5982;37.494;-8.758;2023-06-10T02:01:16;19.30;99.90
11846;DHT22;5982;37.494;-8.758;2023-06-10T02:03:44;19.30;99.90
11846;DHT22;5982;37.494;-8.758;2023-06-10T02:06:12;19.30;99.90
11846;DHT22;5982;37.494;-8.758;2023-06-10T02:08:40;19.30;99.90
11846;DHT22;5982;37.494;-8.758;2023-06-10T02:11:09;19.30;99.90
11846;DHT22;5982;37.494;-8.758;2023-06-10T02:13:37;19.20;99.90
11846;DHT22;5982;37.494;-8.758;2023-06-10T02:16:05;19.10;99.90
11846;DHT22;5982;37.494;-8.758;2023-06-10T02:18:33;19.10;99.90
11846;DHT22;5982;37.494;-8.758;2023-06-10T02:21:01;19.10;99.90
11846;DHT22;5982;37.494;-8.758;2023-06-10T02:23:29;19.10;99.90
11846;DHT22;5982;37.494;-8.758;2023-06-10T02:25:57;19.10;99.90
11846;DHT22;5982;37.494;-8.758;2023-06-10T02:28:27;19.10;99.90
11846;DHT22;5982;37.494;-8.758;2023-06-10T02:30:55;19.10;99.90
11846;DHT22;5982;37.494;-8.758;2023-06-10T02:33:24;19.00;99.90
11846;DHT22;5982;37.494;-8.758;2023-06-10T02:35:52;18.90;99.90
11846;DHT22;5982;37.494;-8.758;2023-06-10T02:38:20;18.80;99.90
11846;DHT22;5982;37.494;-8.758;2023-06-10T02:40:48;18.80;99.90
11846;DHT22;5982;37.494;-8.758;2023-06-10T02:43:16;18.70;99.90
11846;DHT22;5982;37.494;-8.758;2023-06-10T02:45:46;18.70;99.90
11846;DHT22;5982;37.494;-8.758;2023-06-10T02:48:14;18.70;99.90
11846;DHT22;5982;37.494;-8.758;2023-06-10T02:50:42;18.70;99.90
11846;DHT22;5982;37.494;-8.758;2023-06-10T02:53:10;18.70;99.90
11846;DHT22;5982;37.494;-8.758;2023-06-10T02:55:38;18.70;99.90
11846;DHT22;5982;37.494;-8.758;2023-06-10T02:58:06;18.70;99.90
11846;DHT22;5982;37.494;-8.758;2023-06-10T03:00:34;18.70;99.90
11846;DHT22;5982;37.494;-8.758;2023-06-10T03:03:04;18.70;99.90
11846;DHT22;5982;37.494;-8.758;2023-06-10T03:05:32;18.70;99.90
11846;DHT22;5982;37.494;-8.758;2023-06-10T03:08:00;18.80;99.90
11846;DHT22;5982;37.494;-8.758;2023-06-10T03:10:46;18.70;99.90
11846;DHT22;5982;37.494;-8.758;2023-06-10T03:13:14;18.70;99.90
11846;DHT22;5982;37.494;-8.758;2023-06-10T03:15:42;18.70;99.90
11846;DHT22;5982;37.494;-8.758;2023-06-10T03:18:13;18.70;99.90
11846;DHT22;5982;37.494;-8.758;2023-06-10T03:20:42;18.70;99.90
11846;DHT22;5982;37.494;-8.758;2023-06-10T03:23:11;18.70;99.90
11846;DHT22;5982;37.494;-8.758;2023-06-10T03:25:39;18.70;99.90
11846;DHT22;5982;37.494;-8.758;2023-06-10T03:28:08;18.70;99.90
11846;DHT22;5982;37.494;-8.758;2023-06-10T03:30:37;18.70;99.90
11846;DHT22;5982;37.494;-8.758;2023-06-10T03:33:05;18.80;99.90
11846;DHT22;5982;37.494;-8.758;2023-06-10T03:35:36;18.80;99.90
11846;DHT22;5982;37.494;-8.758;2023-06-10T03:38:04;18.90;99.90
11846;DHT22;5982;37.494;-8.758;2023-06-10T03:40:32;18.90;99.90
11846;DHT22;5982;37.494;-8.758;2023-06-10T03:43:01;18.90;99.90
11846;DHT22;5982;37.494;-8.758;2023-06-10T03:45:30;18.90;99.90
11846;DHT22;5982;37.494;-8.758;2023-06-10T03:48:00;19.00;99.90
11846;DHT22;5982;37.494;-8.758;2023-06-10T03:50:29;19.10;99.90
11846;DHT22;5982;37.494;-8.758;2023-06-10T03:53:00;19.10;99.90
11846;DHT22;5982;37.494;-8.758;2023-06-10T03:55:28;19.10;99.90
11846;DHT22;5982;37.494;-8.758;2023-06-10T03:57:57;19.10;99.90
11846;DHT22;5982;37.494;-8.758;2023-06-10T04:00:26;19.10;99.90
11846;DHT22;5982;37.494;-8.758;2023-06-10T04:02:55;19.10;99.90
11846;DHT22;5982;37.494;-8.758;2023-06-10T04:05:24;19.10;99.90
11846;DHT22;5982;37.494;-8.758;2023-06-10T04:07:52;19.10;99.90
11846;DHT22;5982;37.494;-8.758;2023-06-10T04:10:22;19.20;99.90
11846;DHT22;5982;37.494;-8.758;2023-06-10T04:12:51;19.10;99.90
11846;DHT22;5982;37.494;-8.758;2023-06-10T04:15:20;19.10;99.90
11846;DHT22;5982;37.494;-8.758;2023-06-10T04:17:48;19.10;99.90
11846;DHT22;5982;37.494;-8.758;2023-06-10T04:20:17;19.10;99.90
11846;DHT22;5982;37.494;-8.758;2023-06-10T04:22:45;19.10;99.90
11846;DHT22;5982;37.494;-8.758;2023-06-10T04:25:14;19.10;99.90
11846;DHT22;5982;37.494;-8.758;2023-06-10T04:27:45;19.10;99.90
11846;DHT22;5982;37.494;-8.758;2023-06-10T04:30:14;19.00;99.90
11846;DHT22;5982;37.494;-8.758;2023-06-10T04:32:43;18.90;99.90
11846;DHT22;5982;37.494;-8.758;2023-06-10T04:35:12;18.90;99.90
11846;DHT22;5982;37.494;-8.758;2023-06-10T04:37:40;18.80;99.90
11846;DHT22;5982;37.494;-8.758;2023-06-10T04:40:09;18.70;99.90
11846;DHT22;5982;37.494;-8.758;2023-06-10T04:42:38;18.70;99.90
11846;DHT22;5982;37.494;-8.758;2023-06-10T04:45:09;18.70;99.90
11846;DHT22;5982;37.494;-8.758;2023-06-10T04:47:37;18.70;99.90
11846;DHT22;5982;37.494;-8.758;2023-06-10T04:50:06;18.80;99.90
11846;DHT22;5982;37.494;-8.758;2023-06-10T04:52:35;18.70;99.90
11846;DHT22;5982;37.494;-8.758;2023-06-10T04:55:04;18.60;99.90
11846;DHT22;5982;37.494;-8.758;2023-06-10T04:57:33;18.60;99.90
11846;DHT22;5982;37.494;-8.758;2023-06-10T05:00:02;18.60;99.90
11846;DHT22;5982;37.494;-8.758;2023-06-10T05:02:34;18.50;99.90
11846;DHT22;5982;37.494;-8.758;2023-06-10T05:05:02;18.50;99.90
11846;DHT22;5982;37.494;-8.758;2023-06-10T05:07:32;18.50;99.90
11846;DHT22;5982;37.494;-8.758;2023-06-10T05:10:01;18.50;99.90
11846;DHT22;5982;37.494;-8.758;2023-06-10T05:12:29;18.60;99.90
11846;DHT22;5982;37.494;-8.758;2023-06-10T05:14:57;18.60;99.90
11846;DHT22;5982;37.494;-8.758;2023-06-10T05:17:26;18.60;99.90
11846;DHT22;5982;37.494;-8.758;2023-06-10T05:19:57;18.70;99.90
11846;DHT22;5982;37.494;-8.758;2023-06-10T05:22:25;18.70;99.90
11846;DHT22;5982;37.494;-8.758;2023-06-10T05:24:54;18.70;99.90
11846;DHT22;5982;37.494;-8.758;2023-06-10T05:27:23;18.70;99.90
11846;DHT22;5982;37.494;-8.758;2023-06-10T05:29:51;18.70;99.90
11846;DHT22;5982;37.494;-8.758;2023-06-10T05:32:20;18.70;99.90
11846;DHT22;5982;37.494;-8.758;2023-06-10T05:34:49;18.70;99.90
11846;DHT22;5982;37.494;-8.758;2023-06-10T05:37:19;18.50;99.90
11846;DHT22;5982;37.494;-8.758;2023-06-10T05:39:47;18.40;99.90
11846;DHT22;5982;37.494;-8.758;2023-06-10T05:42:16;18.40;99.90
11846;DHT22;5982;37.494;-8.758;2023-06-10T05:44:45;18.40;99.90
11846;DHT22;5982;37.494;-8.758;2023-06-10T05:47:14;18.30;99.90
11846;DHT22;5982;37.494;-8.758;2023-06-10T05:49:42;18.20;99.90
11846;DHT22;5982;37.494;-8.758;2023-06-10T05:52:14;18.20;99.90
11846;DHT22;5982;37.494;-8.758;2023-06-10T05:54:44;18.20;99.90
11846;DHT22;5982;37.494;-8.758;2023-06-10T05:57:13;18.30;99.90
11846;DHT22;5982;37.494;-8.758;2023-06-10T05:59:41;18.60;99.90
11846;DHT22;5982;37.494;-8.758;2023-06-10T06:02:10;19.50;99.90
11846;DHT22;5982;37.494;-8.758;2023-06-10T06:04:38;20.30;99.90
11846;DHT22;5982;37.494;-8.758;2023-06-10T06:07:07;21.10;99.90
11846;DHT22;5982;37.494;-8.758;2023-06-10T06:09:35;22.00;99.90
11846;DHT22;5982;37.494;-8.758;2023-06-10T06:12:06;22.90;99.90
11846;DHT22;5982;37.494;-8.758;2023-06-10T06:14:37;23.70;99.90
11846;DHT22;5982;37.494;-8.758;2023-06-10T06:17:06;24.30;99.90
11846;DHT22;5982;37.494;-8.758;2023-06-10T06:19:35;25.00;99.90
11846;DHT22;5982;37.494;-8.758;2023-06-10T06:22:04;25.60;99.90
11846;DHT22;5982;37.494;-8.758;2023-06-10T06:24:33;26.20;99.90
11846;DHT22;5982;37.494;-8.758;2023-06-10T06:27:01;27.00;99.90
11846;DHT22;5982;37.494;-8.758;2023-06-10T06:29:32;27.60;99.90
11846;DHT22;5982;37.494;-8.758;2023-06-10T06:32:01;28.30;99.90
11846;DHT22;5982;37.494;-8.758;2023-06-10T06:34:29;28.80;99.90
11846;DHT22;5982;37.494;-8.758;2023-06-10T06:36:58;29.40;99.90
11846;DHT22;5982;37.494;-8.758;2023-06-10T06:39:27;30.00;99.90
11846;DHT22;5982;37.494;-8.758;2023-06-10T06:41:56;30.40;99.90
11846;DHT22;5982;37.494;-8.758;2023-06-10T06:44:24;30.70;99.90
11846;DHT22;5982;37.494;-8.758;2023-06-10T06:46:54;30.80;99.90
11846;DHT22;5982;37.494;-8.758;2023-06-10T06:49:23;30.80;99.90
11846;DHT22;5982;37.494;-8.758;2023-06-10T06:51:51;31.10;99.90
11846;DHT22;5982;37.494;-8.758;2023-06-10T06:54:20;31.60;99.90
11846;DHT22;5982;37.494;-8.758;2023-06-10T06:56:48;32.00;99.90
11846;DHT22;5982;37.494;-8.758;2023-06-10T06:59:17;32.20;99.90
11846;DHT22;5982;37.494;-8.758;2023-06-10T07:01:46;32.20;99.90
11846;DHT22;5982;37.494;-8.758;2023-06-10T07:04:16;31.00;99.90
11846;DHT22;5982;37.494;-8.758;2023-06-10T07:06:48;29.30;99.90
11846;DHT22;5982;37.494;-8.758;2023-06-10T07:09:16;27.80;99.90
11846;DHT22;5982;37.494;-8.758;2023-06-10T07:11:44;26.70;99.90
11846;DHT22;5982;37.494;-8.758;2023-06-10T07:14:13;25.90;99.90
11846;DHT22;5982;37.494;-8.758;2023-06-10T07:16:42;25.20;99.90
11846;DHT22;5982;37.494;-8.758;2023-06-10T07:19:11;24.80;99.90
11846;DHT22;5982;37.494;-8.758;2023-06-10T07:21:41;24.30;99.90
11846;DHT22;5982;37.494;-8.758;2023-06-10T07:24:10;24.20;99.90
11846;DHT22;5982;37.494;-8.758;2023-06-10T07:26:38;24.20;99.90
11846;DHT22;5982;37.494;-8.758;2023-06-10T07:29:07;24.10;99.90
11846;DHT22;5982;37.494;-8.758;2023-06-10T07:31:36;24.40;99.90
11846;DHT22;5982;37.494;-8.758;2023-06-10T07:34:04;24.30;99.90
11846;DHT22;5982;37.494;-8.758;2023-06-10T07:36:33;24.10;99.90
11846;DHT22;5982;37.494;-8.758;2023-06-10T07:39:04;24.00;99.90
11846;DHT22;5982;37.494;-8.758;2023-06-10T07:41:33;23.60;99.90
11846;DHT22;5982;37.494;-8.758;2023-06-10T07:44:02;23.40;99.90
11846;DHT22;5982;37.494;-8.758;2023-06-10T07:46:30;23.30;99.90
11846;DHT22;5982;37.494;-8.758;2023-06-10T07:48:58;23.20;99.90
11846;DHT22;5982;37.494;-8.758;2023-06-10T07:51:27;23.20;99.90
11846;DHT22;5982;37.494;-8.758;2023-06-10T07:53:56;23.20;99.90
11846;DHT22;5982;37.494;-8.758;2023-06-10T07:56:25;23.50;99.90
11846;DHT22;5982;37.494;-8.758;2023-06-10T07:58:54;24.10;99.90
11846;DHT22;5982;37.494;-8.758;2023-06-10T08:01:23;24.70;99.90
11846;DHT22;5982;37.494;-8.758;2023-06-10T08:03:52;25.20;99.90
11846;DHT22;5982;37.494;-8.758;2023-06-10T08:06:21;25.30;99.90
11846;DHT22;5982;37.494;-8.758;2023-06-10T08:08:49;25.00;99.90
11846;DHT22;5982;37.494;-8.758;2023-06-10T08:11:18;24.70;99.90
11846;DHT22;5982;37.494;-8.758;2023-06-10T08:13:48;24.80;99.90
11846;DHT22;5982;37.494;-8.758;2023-06-10T08:16:17;24.80;99.90
11846;DHT22;5982;37.494;-8.758;2023-06-10T08:18:45;24.60;99.90
11846;DHT22;5982;37.494;-8.758;2023-06-10T08:21:16;24.30;99.90
11846;DHT22;5982;37.494;-8.758;2023-06-10T08:23:45;23.90;99.90
11846;DHT22;5982;37.494;-8.758;2023-06-10T08:26:14;23.60;99.90
11846;DHT22;5982;37.494;-8.758;2023-06-10T08:28:43;23.30;99.90
11846;DHT22;5982;37.494;-8.758;2023-06-10T08:31:13;23.60;99.90
11846;DHT22;5982;37.494;-8.758;2023-06-10T08:33:42;24.30;99.90
11846;DHT22;5982;37.494;-8.758;2023-06-10T08:36:11;24.80;99.90
11846;DHT22;5982;37.494;-8.758;2023-06-10T08:38:39;25.30;99.90
11846;DHT22;5982;37.494;-8.758;2023-06-10T08:41:08;25.70;99.90
11846;DHT22;5982;37.494;-8.758;2023-06-10T08:43:42;25.80;99.90
11846;DHT22;5982;37.494;-8.758;2023-06-10T08:46:13;25.90;99.90
11846;DHT22;5982;37.494;-8.758;2023-06-10T08:48:43;26.20;99.90
11846;DHT22;5982;37.494;-8.758;2023-06-10T08:51:11;26.50;99.90
11846;DHT22;5982;37.494;-8.758;2023-06-10T08:53:42;26.50;99.90
11846;DHT22;5982;37.494;-8.758;2023-06-10T08:56:16;26.70;99.90
11846;DHT22;5982;37.494;-8.758;2023-06-10T08:58:45;26.60;99.90
11846;DHT22;5982;37.494;-8.758;2023-06-10T09:01:16;26.90;99.90
11846;DHT22;5982;37.494;-8.758;2023-06-10T09:03:45;27.20;99.90
11846;DHT22;5982;37.494;-8.758;2023-06-10T09:06:13;27.70;99.90
11846;DHT22;5982;37.494;-8.758;2023-06-10T09:08:42;27.90;99.90
11846;DHT22;5982;37.494;-8.758;2023-06-10T09:11:11;27.90;99.90
11846;DHT22;5982;37.494;-8.758;2023-06-10T09:13:39;27.70;99.90
11846;DHT22;5982;37.494;-8.758;2023-06-10T09:16:08;27.40;99.90
11846;DHT22;5982;37.494;-8.758;2023-06-10T09:18:39;27.20;99.90
11846;DHT22;5982;37.494;-8.758;2023-06-10T09:21:08;26.70;99.90
11846;DHT22;5982;37.494;-8.758;2023-06-10T09:23:37;26.80;99.90
11846;DHT22;5982;37.494;-8.758;2023-06-10T09:26:08;27.10;99.90
11846;DHT22;5982;37.494;-8.758;2023-06-10T09:28:38;27.30;99.90
11846;DHT22;5982;37.494;-8.758;2023-06-10T09:31:07;27.50;99.90
11846;DHT22;5982;37.494;-8.758;2023-06-10T09:33:37;27.60;99.90
11846;DHT22;5982;37.494;-8.758;2023-06-10T09:36:07;27.70;99.90
11846;DHT22;5982;37.494;-8.758;2023-06-10T09:38:37;27.50;99.90
11846;DHT22;5982;37.494;-8.758;2023-06-10T09:41:05;27.50;99.90
11846;DHT22;5982;37.494;-8.758;2023-06-10T09:43:42;27.40;99.90
11846;DHT22;5982;37.494;-8.758;2023-06-10T09:46:15;27.40;99.90
11846;DHT22;5982;37.494;-8.758;2023-06-10T09:48:45;27.50;99.90
11846;DHT22;5982;37.494;-8.758;2023-06-10T09:51:15;27.60;99.90
11846;DHT22;5982;37.494;-8.758;2023-06-10T09:53:47;27.70;99.90
11846;DHT22;5982;37.494;-8.758;2023-06-10T09:56:17;27.80;99.90
11846;DHT22;5982;37.494;-8.758;2023-06-10T09:58:47;27.70;99.90
11846;DHT22;5982;37.494;-8.758;2023-06-10T10:01:15;27.70;99.90
11846;DHT22;5982;37.494;-8.758;2023-06-10T10:03:45;27.80;99.90
11846;DHT22;5982;37.494;-8.758;2023-06-10T10:06:14;27.80;99.90
11846;DHT22;5982;37.494;-8.758;2023-06-10T10:08:42;28.00;99.90
11846;DHT22;5982;37.494;-8.758;2023-06-10T10:11:11;28.00;99.90
11846;DHT22;5982;37.494;-8.758;2023-06-10T10:13:39;27.90;99.90
11846;DHT22;5982;37.494;-8.758;2023-06-10T10:16:10;28.00;99.90
11846;DHT22;5982;37.494;-8.758;2023-06-10T10:18:40;28.10;99.90
11846;DHT22;5982;37.494;-8.758;2023-06-10T10:21:13;27.90;99.90
11846;DHT22;5982;37.494;-8.758;2023-06-10T10:23:44;28.10;99.90
11846;DHT22;5982;37.494;-8.758;2023-06-10T10:26:16;28.30;99.90
11846;DHT22;5982;37.494;-8.758;2023-06-10T10:28:47;28.10;99.90
11846;DHT22;5982;37.494;-8.758;2023-06-10T10:31:18;28.00;99.90
11846;DHT22;5982;37.494;-8.758;2023-06-10T10:33:52;28.00;99.90
11846;DHT22;5982;37.494;-8.758;2023-06-10T10:36:25;27.90;99.90
11846;DHT22;5982;37.494;-8.758;2023-06-10T10:38:53;27.60;99.90
11846;DHT22;5982;37.494;-8.758;2023-06-10T10:41:22;27.70;99.90
11846;DHT22;5982;37.494;-8.758;2023-06-10T10:43:52;27.90;99.90
11846;DHT22;5982;37.494;-8.758;2023-06-10T10:46:21;27.90;99.90
11846;DHT22;5982;37.494;-8.758;2023-06-10T10:48:52;28.00;99.90
11846;DHT22;5982;37.494;-8.758;2023-06-10T10:51:23;28.10;99.90
11846;DHT22;5982;37.494;-8.758;2023-06-10T10:54:11;28.10;99.90
11846;DHT22;5982;37.494;-8.758;2023-06-10T10:59:46;27.50;99.90
11846;DHT22;5982;37.494;-8.758;2023-06-10T11:02:33;27.60;99.90
11846;DHT22;5982;37.494;-8.758;2023-06-10T11:05:09;27.60;99.90
11846;DHT22;5982;37.494;-8.758;2023-06-10T11:07:39;27.60;99.90
11846;DHT22;5982;37.494;-8.758;2023-06-10T11:10:09;27.50;99.90
11846;DHT22;5982;37.494;-8.758;2023-06-10T11:15:23;27.60;99.90
11846;DHT22;5982;37.494;-8.758;2023-06-10T11:18:14;27.70;99.90
11846;DHT22;5982;37.494;-8.758;2023-06-10T11:20:51;27.80;99.90
11846;DHT22;5982;37.494;-8.758;2023-06-10T11:23:32;28.00;99.90
11846;DHT22;5982;37.494;-8.758;2023-06-10T11:29:06;28.30;99.90
11846;DHT22;5982;37.494;-8.758;2023-06-10T11:31:40;28.20;99.90
11846;DHT22;5982;37.494;-8.758;2023-06-10T11:34:10;28.10;99.90
11846;DHT22;5982;37.494;-8.758;2023-06-10T11:36:39;28.10;99.90
11846;DHT22;5982;37.494;-8.758;2023-06-10T11:39:11;27.90;99.90
11846;DHT22;5982;37.494;-8.758;2023-06-10T11:41:40;27.60;99.90
11846;DHT22;5982;37.494;-8.758;2023-06-10T11:44:09;27.50;99.90
11846;DHT22;5982;37.494;-8.758;2023-06-10T11:46:39;27.60;99.90
11846;DHT22;5982;37.494;-8.758;2023-06-10T11:49:09;27.50;99.90
11846;DHT22;5982;37.494;-8.758;2023-06-10T11:51:37;27.40;99.90
11846;DHT22;5982;37.494;-8.758;2023-06-10T11:54:10;27.40;99.90
11846;DHT22;5982;37.494;-8.758;2023-06-10T11:56:39;27.50;99.90
11846;DHT22;5982;37.494;-8.758;2023-06-10T11:59:08;27.40;99.90
11846;DHT22;5982;37.494;-8.758;2023-06-10T12:01:37;27.40;99.90
11846;DHT22;5982;37.494;-8.758;2023-06-10T12:04:11;27.50;99.90
11846;DHT22;5982;37.494;-8.758;2023-06-10T12:06:41;27.70;99.90
11846;DHT22;5982;37.494;-8.758;2023-06-10T12:09:21;27.80;99.90
11846;DHT22;5982;37.494;-8.758;2023-06-10T12:11:51;27.90;99.90
11846;DHT22;5982;37.494;-8.758;2023-06-10T12:17:21;28.00;99.90
11846;DHT22;5982;37.494;-8.758;2023-06-10T12:19:51;27.90;99.90
11846;DHT22;5982;37.494;-8.758;2023-06-10T12:22:20;27.70;99.90
11846;DHT22;5982;37.494;-8.758;2023-06-10T12:24:59;27.80;99.90
11846;DHT22;5982;37.494;-8.758;2023-06-10T12:27:29;27.90;99.90
11846;DHT22;5982;37.494;-8.758;2023-06-10T12:29:58;27.70;99.90
11846;DHT22;5982;37.494;-8.758;2023-06-10T12:32:39;27.60;99.90
11846;DHT22;5982;37.494;-8.758;2023-06-10T12:35:10;27.90;99.90
11846;DHT22;5982;37.494;-8.758;2023-06-10T12:37:39;28.10;99.90
11846;DHT22;5982;37.494;-8.758;2023-06-10T12:40:11;28.40;99.90
11846;DHT22;5982;37.494;-8.758;2023-06-10T12:42:39;28.40;99.90
11846;DHT22;5982;37.494;-8.758;2023-06-10T12:45:09;28.50;99.90
11846;DHT22;5982;37.494;-8.758;2023-06-10T12:47:38;28.80;99.90
11846;DHT22;5982;37.494;-8.758;2023-06-10T12:50:07;28.80;99.90
11846;DHT22;5982;37.494;-8.758;2023-06-10T12:52:38;28.80;99.90
11846;DHT22;5982;37.494;-8.758;2023-06-10T12:55:08;28.70;99.90
11846;DHT22;5982;37.494;-8.758;2023-06-10T12:57:47;28.80;99.90
11846;DHT22;5982;37.494;-8.758;2023-06-10T13:00:17;28.80;99.90
11846;DHT22;5982;37.494;-8.758;2023-06-10T13:02:47;28.80;99.90
11846;DHT22;5982;37.494;-8.758;2023-06-10T13:05:17;28.50;99.90
11846;DHT22;5982;37.494;-8.758;2023-06-10T13:07:46;28.30;99.90
11846;DHT22;5982;37.494;-8.758;2023-06-10T13:10:17;28.20;99.90
11846;DHT22;5982;37.494;-8.758;2023-06-10T13:12:45;28.30;99.90
11846;DHT22;5982;37.494;-8.758;2023-06-10T13:15:13;28.40;99.90
11846;DHT22;5982;37.494;-8.758;2023-06-10T13:17:42;28.90;99.90
11846;DHT22;5982;37.494;-8.758;2023-06-10T13:20:11;28.90;99.90
11846;DHT22;5982;37.494;-8.758;2023-06-10T13:22:40;29.10;99.90
11846;DHT22;5982;37.494;-8.758;2023-06-10T13:25:09;29.40;99.90
11846;DHT22;5982;37.494;-8.758;2023-06-10T13:27:39;29.60;99.90
11846;DHT22;5982;37.494;-8.758;2023-06-10T13:30:08;29.60;99.90
11846;DHT22;5982;37.494;-8.758;2023-06-10T13:32:38;29.70;99.90
11846;DHT22;5982;37.494;-8.758;2023-06-10T13:35:07;29.50;99.90
11846;DHT22;5982;37.494;-8.758;2023-06-10T13:37:36;29.10;99.90
11846;DHT22;5982;37.494;-8.758;2023-06-10T13:40:05;28.60;99.90
11846;DHT22;5982;37.494;-8.758;2023-06-10T13:42:35;28.30;99.90
11846;DHT22;5982;37.494;-8.758;2023-06-10T13:45:06;28.00;99.90
11846;DHT22;5982;37.494;-8.758;2023-06-10T13:47:35;27.90;99.90
11846;DHT22;5982;37.494;-8.758;2023-06-10T13:50:04;27.80;99.90
11846;DHT22;5982;37.494;-8.758;2023-06-10T13:52:34;27.70;99.90
11846;DHT22;5982;37.494;-8.758;2023-06-10T13:55:03;27.70;99.90
11846;DHT22;5982;37.494;-8.758;2023-06-10T13:57:33;27.60;99.90
11846;DHT22;5982;37.494;-8.758;2023-06-10T14:00:02;27.60;99.90
11846;DHT22;5982;37.494;-8.758;2023-06-10T14:02:33;28.00;99.90
11846;DHT22;5982;37.494;-8.758;2023-06-10T14:05:02;28.30;99.90
11846;DHT22;5982;37.494;-8.758;2023-06-10T14:07:31;28.50;99.90
11846;DHT22;5982;37.494;-8.758;2023-06-10T14:10:00;28.50;99.90
11846;DHT22;5982;37.494;-8.758;2023-06-10T14:12:29;28.40;99.90
11846;DHT22;5982;37.494;-8.758;2023-06-10T14:14:58;28.60;99.90
11846;DHT22;5982;37.494;-8.758;2023-06-10T14:17:26;28.60;99.90
11846;DHT22;5982;37.494;-8.758;2023-06-10T14:19:57;28.50;99.90
11846;DHT22;5982;37.494;-8.758;2023-06-10T14:22:25;28.60;99.90
11846;DHT22;5982;37.494;-8.758;2023-06-10T14:24:54;28.60;99.90
11846;DHT22;5982;37.494;-8.758;2023-06-10T14:27:23;28.40;99.90
11846;DHT22;5982;37.494;-8.758;2023-06-10T14:29:51;28.20;99.90
11846;DHT22;5982;37.494;-8.758;2023-06-10T14:32:19;28.10;99.90
11846;DHT22;5982;37.494;-8.758;2023-06-10T14:34:47;28.10;99.90
11846;DHT22;5982;37.494;-8.758;2023-06-10T14:37:17;28.20;99.90
11846;DHT22;5982;37.494;-8.758;2023-06-10T14:39:45;28.00;99.90
11846;DHT22;5982;37.494;-8.758;2023-06-10T14:42:13;27.80;99.90
11846;DHT22;5982;37.494;-8.758;2023-06-10T14:44:41;27.60;99.90
11846;DHT22;5982;37.494;-8.758;2023-06-10T14:47:10;27.60;99.90
11846;DHT22;5982;37.494;-8.758;2023-06-10T14:49:39;27.80;99.90
11846;DHT22;5982;37.494;-8.758;2023-06-10T14:52:08;27.90;99.90
11846;DHT22;5982;37.494;-8.758;2023-06-10T14:54:38;28.10;99.90
11846;DHT22;5982;37.494;-8.758;2023-06-10T14:57:06;28.10;99.90
11846;DHT22;5982;37.494;-8.758;2023-06-10T14:59:35;28.10;99.90
11846;DHT22;5982;37.494;-8.758;2023-06-10T15:02:04;28.30;99.90
11846;DHT22;5982;37.494;-8.758;2023-06-10T15:04:33;28.30;99.90
11846;DHT22;5982;37.494;-8.758;2023-06-10T15:07:01;28.30;99.90
11846;DHT22;5982;37.494;-8.758;2023-06-10T15:09:29;28.30;99.90
11846;DHT22;5982;37.494;-8.758;2023-06-10T15:11:59;28.10;99.90
11846;DHT22;5982;37.494;-8.758;2023-06-10T15:14:29;27.80;99.90
11846;DHT22;5982;37.494;-8.758;2023-06-10T15:16:58;27.70;99.90
11846;DHT22;5982;37.494;-8.758;2023-06-10T15:19:26;27.80;99.90
11846;DHT22;5982;37.494;-8.758;2023-06-10T15:21:55;27.60;99.90
11846;DHT22;5982;37.494;-8.758;2023-06-10T15:24:23;27.60;99.90
11846;DHT22;5982;37.494;-8.758;2023-06-10T15:26:51;27.70;99.90
11846;DHT22;5982;37.494;-8.758;2023-06-10T15:29:21;27.80;99.90
11846;DHT22;5982;37.494;-8.758;2023-06-10T15:31:50;28.00;99.90
11846;DHT22;5982;37.494;-8.758;2023-06-10T15:34:19;28.50;99.90
11846;DHT22;5982;37.494;-8.758;2023-06-10T15:36:48;28.60;99.90
11846;DHT22;5982;37.494;-8.758;2023-06-10T15:39:16;28.50;99.90
11846;DHT22;5982;37.494;-8.758;2023-06-10T15:41:45;28.40;99.90
11846;DHT22;5982;37.494;-8.758;2023-06-10T15:44:14;28.60;99.90
11846;DHT22;5982;37.494;-8.758;2023-06-10T15:46:44;28.70;99.90
11846;DHT22;5982;37.494;-8.758;2023-06-10T15:49:13;28.90;99.90
11846;DHT22;5982;37.494;-8.758;2023-06-10T15:51:41;29.10;99.90
11846;DHT22;5982;37.494;-8.758;2023-06-10T15:54:10;29.30;99.90
11846;DHT22;5982;37.494;-8.758;2023-06-10T15:56:38;29.50;99.90